createdAt,value
2018-07-05T00:00:31.681Z,9.27
2018-07-05T00:03:11.132Z,10.23
2018-07-05T00:05:50.752Z,10.07
2018-07-05T00:08:30.112Z,10.20
2018-07-05T00:11:09.710Z,11.90
2018-07-05T00:13:49.301Z,9.67
2018-07-05T00:16:28.696Z,9.53
2018-07-05T00:19:08.261Z,13.13
2018-07-05T00:21:47.841Z,9.90
2018-07-05T00:24:27.409Z,9.40
2018-07-05T00:27:07.092Z,10.87
2018-07-05T00:29:46.712Z,9.10
2018-07-05T00:32:26.195Z,9.57
2018-07-05T00:35:05.802Z,10.77
2018-07-05T00:37:45.193Z,9.63
2018-07-05T00:40:24.702Z,10.83
2018-07-05T00:43:04.148Z,10.77
2018-07-05T00:45:43.825Z,11.00
2018-07-05T00:48:23.303Z,13.03
2018-07-05T00:50:56.873Z,10.37
2018-07-05T00:53:36.423Z,11.50
2018-07-05T00:56:16.008Z,12.00
2018-07-05T00:58:55.500Z,14.70
2018-07-05T01:01:35.072Z,15.80
2018-07-05T01:04:14.720Z,17.10
2018-07-05T01:06:54.144Z,15.57
2018-07-05T01:09:33.781Z,14.07
2018-07-05T01:12:13.272Z,14.37
2018-07-05T01:14:52.881Z,13.10
2018-07-05T01:17:32.366Z,13.30
2018-07-05T01:20:11.681Z,15.60
2018-07-05T01:22:51.253Z,13.23
2018-07-05T01:25:31.459Z,14.70
2018-07-05T01:28:10.932Z,14.20
2018-07-05T01:30:51.067Z,14.07
2018-07-05T01:33:30.748Z,14.97
2018-07-05T01:36:10.271Z,15.40
2018-07-05T01:38:49.733Z,14.20
2018-07-05T01:41:29.269Z,12.67
2018-07-05T01:44:08.790Z,14.47
2018-07-05T01:46:48.281Z,17.27
2018-07-05T01:49:27.912Z,14.87
2018-07-05T01:52:11.476Z,13.87
2018-07-05T01:54:51.844Z,16.80
2018-07-05T01:57:31.625Z,14.97
2018-07-05T02:00:11.034Z,13.67
2018-07-05T02:02:51.185Z,14.70
2018-07-05T02:05:30.661Z,14.07
2018-07-05T02:08:10.318Z,14.17
2018-07-05T02:10:49.741Z,14.10
2018-07-05T02:13:29.323Z,14.93
2018-07-05T02:16:08.753Z,15.43
2018-07-05T02:18:48.520Z,13.80
2018-07-05T02:21:28.173Z,13.83
2018-07-05T02:24:07.778Z,14.07
2018-07-05T02:26:47.239Z,15.13
2018-07-05T02:29:26.787Z,14.90
2018-07-05T02:32:06.300Z,15.23
2018-07-05T02:34:45.906Z,15.33
2018-07-05T02:37:30.856Z,17.10
2018-07-05T02:40:10.479Z,17.00
2018-07-05T02:42:49.850Z,14.60
2018-07-05T02:45:29.396Z,17.80
2018-07-05T02:48:08.887Z,15.03
2018-07-05T02:50:48.607Z,15.37
2018-07-05T02:53:28.075Z,15.53
2018-07-05T02:56:07.687Z,16.23
2018-07-05T02:58:47.152Z,15.13
2018-07-05T03:01:26.736Z,17.60
2018-07-05T03:04:06.144Z,16.43
2018-07-05T03:06:45.734Z,16.60
2018-07-05T03:09:25.337Z,16.20
2018-07-05T03:12:04.793Z,16.50
2018-07-05T03:14:44.484Z,15.67
2018-07-05T03:17:23.996Z,14.73
2018-07-05T03:20:03.361Z,16.90
2018-07-05T03:22:42.998Z,15.43
2018-07-05T03:25:22.605Z,15.67
2018-07-05T03:28:02.201Z,18.33
2018-07-05T03:30:41.812Z,15.50
2018-07-05T03:33:21.472Z,16.83
2018-07-05T03:36:01.113Z,16.07
2018-07-05T03:38:40.814Z,17.17
2018-07-05T03:41:20.365Z,20.30
2018-07-05T03:43:59.856Z,15.63
2018-07-05T03:46:39.233Z,21.63
2018-07-05T03:49:18.765Z,16.40
2018-07-05T03:51:58.209Z,18.50
2018-07-05T03:54:37.955Z,13.50
2018-07-05T03:57:17.552Z,13.73
2018-07-05T03:59:57.206Z,11.40
2018-07-05T04:02:30.689Z,13.57
2018-07-05T04:05:10.344Z,12.23
2018-07-05T04:07:49.783Z,10.40
2018-07-05T04:10:29.352Z,11.10
2018-07-05T04:13:08.956Z,15.10
2018-07-05T04:15:48.354Z,12.23
2018-07-05T04:18:28.150Z,13.20
2018-07-05T04:21:07.600Z,12.83
2018-07-05T04:23:47.161Z,8.50
2018-07-05T04:26:26.694Z,9.43
2018-07-05T04:29:06.220Z,8.23
2018-07-05T04:31:45.910Z,10.37
2018-07-05T04:34:25.260Z,8.27
2018-07-05T04:37:04.835Z,8.23
2018-07-05T04:39:44.364Z,8.80
2018-07-05T04:42:23.989Z,12.03
2018-07-05T04:45:03.546Z,11.27
2018-07-05T04:47:43.246Z,10.57
2018-07-05T04:50:22.674Z,8.17
2018-07-05T04:53:02.289Z,8.60
2018-07-05T04:55:41.855Z,14.07
2018-07-05T04:58:21.386Z,9.63
2018-07-05T05:01:00.910Z,8.73
2018-07-05T05:03:40.505Z,11.10
2018-07-05T05:06:19.888Z,9.03
2018-07-05T05:08:59.708Z,9.57
2018-07-05T05:11:39.302Z,8.27
2018-07-05T05:14:19.365Z,11.40
2018-07-05T05:16:58.980Z,8.33
2018-07-05T05:19:38.462Z,11.17
2018-07-05T05:22:18.026Z,9.40
2018-07-05T05:24:57.513Z,12.73
2018-07-05T05:27:37.228Z,13.00
2018-07-05T05:30:16.886Z,12.43
2018-07-05T05:32:56.393Z,11.37
2018-07-05T05:35:36.047Z,10.07
2018-07-05T05:38:15.679Z,12.43
2018-07-05T05:40:55.172Z,14.13
2018-07-05T05:43:34.688Z,9.00
2018-07-05T05:46:14.256Z,8.97
2018-07-05T05:48:53.919Z,10.33
2018-07-05T05:51:33.357Z,10.53
2018-07-05T05:54:12.968Z,13.63
2018-07-05T05:56:52.476Z,13.83
2018-07-05T05:59:32.037Z,11.10
2018-07-05T06:02:11.731Z,9.73
2018-07-05T06:04:51.416Z,9.33
2018-07-05T06:07:31.072Z,11.10
2018-07-05T06:10:10.626Z,9.83
2018-07-05T06:12:50.200Z,12.03
2018-07-05T06:15:29.797Z,11.50
2018-07-05T06:18:09.475Z,14.07
2018-07-05T06:20:49.054Z,13.20
2018-07-05T06:23:28.625Z,14.23
2018-07-05T06:26:08.141Z,12.47
2018-07-05T06:28:47.831Z,12.80
2018-07-05T06:31:27.248Z,11.47
2018-07-05T06:34:06.858Z,15.30
2018-07-05T06:36:46.398Z,10.70
2018-07-05T06:39:26.120Z,14.07
2018-07-05T06:41:59.621Z,13.23
2018-07-05T06:44:39.202Z,11.13
2018-07-05T06:47:18.611Z,9.90
2018-07-05T06:49:58.192Z,12.10
2018-07-05T06:52:37.859Z,12.33
2018-07-05T06:55:17.342Z,12.13
2018-07-05T06:57:57.126Z,11.43
2018-07-05T07:00:36.656Z,36.87
2018-07-05T07:03:16.341Z,12.90
2018-07-05T07:05:55.960Z,11.77
2018-07-05T09:33:56.180Z,10.43
2018-07-05T09:36:23.341Z,12.65
2018-07-05T09:38:50.526Z,10.85
2018-07-05T09:41:17.749Z,11.80
2018-07-05T09:43:44.920Z,12.13
2018-07-05T09:46:12.110Z,17.10
2018-07-05T09:48:39.385Z,8.65
2018-07-05T09:51:06.578Z,7.75
2018-07-05T09:53:33.803Z,5.53
2018-07-05T09:56:01.340Z,9.43
2018-07-05T09:58:28.520Z,12.58
2018-07-05T10:00:55.700Z,6.20
2018-07-05T10:03:24.080Z,7.97
2018-07-05T10:05:51.215Z,11.93
2018-07-05T10:08:19.147Z,11.78
2018-07-05T10:10:46.346Z,7.65
2018-07-05T10:13:13.646Z,10.28
2018-07-05T10:15:40.866Z,10.65
2018-07-05T10:18:08.086Z,12.00
2018-07-05T10:20:35.302Z,11.97
2018-07-05T10:23:03.338Z,11.28
2018-07-05T10:25:30.534Z,11.30
2018-07-05T10:27:57.707Z,13.38
2018-07-05T10:30:37.097Z,13.68
2018-07-05T10:33:16.789Z,15.58
2018-07-05T10:35:43.992Z,14.05
2018-07-05T10:38:11.201Z,18.12
2018-07-05T10:40:50.802Z,11.80
2018-07-05T10:43:30.500Z,13.85
2018-07-05T10:46:10.189Z,13.78
2018-07-05T10:48:49.741Z,13.75
2018-07-05T10:51:29.345Z,13.50
2018-07-05T10:54:09.054Z,15.65
2018-07-05T10:56:48.507Z,11.75
2018-07-05T10:59:28.170Z,13.43
2018-07-05T11:02:07.518Z,9.10
2018-07-05T11:04:47.199Z,12.37
2018-07-05T11:07:26.771Z,11.85
2018-07-05T11:10:06.197Z,11.35
2018-07-05T11:12:45.784Z,10.53
2018-07-05T11:15:25.524Z,12.55
2018-07-05T11:18:05.141Z,9.68
2018-07-05T11:20:44.784Z,8.93
2018-07-05T11:23:24.516Z,12.60
2018-07-05T11:26:04.206Z,12.40
2018-07-05T11:28:43.803Z,9.13
2018-07-05T11:31:24.304Z,9.18
2018-07-05T11:34:03.747Z,8.90
2018-07-05T11:36:43.430Z,10.32
2018-07-05T11:39:23.132Z,10.68
2018-07-05T11:42:02.652Z,10.63
2018-07-05T11:44:42.225Z,13.72
2018-07-05T11:47:21.925Z,6.12
2018-07-05T11:50:01.521Z,6.92
2018-07-05T11:52:40.960Z,8.00
2018-07-05T11:55:20.644Z,8.93
2018-07-05T11:58:00.233Z,7.00
2018-07-05T12:00:40.263Z,6.35
2018-07-05T12:03:19.887Z,6.22
2018-07-05T12:05:59.556Z,7.67
2018-07-05T12:08:39.424Z,4.45
2018-07-05T12:11:19.090Z,4.95
2018-07-05T12:13:58.653Z,9.58
2018-07-05T12:16:38.479Z,6.10
2018-07-05T12:19:18.044Z,7.00
2018-07-05T12:21:57.608Z,6.28
2018-07-05T12:24:37.229Z,6.80
2018-07-05T12:27:16.859Z,4.80
2018-07-05T12:29:56.528Z,6.33
2018-07-05T12:32:36.117Z,8.15
2018-07-05T12:35:15.752Z,8.48
2018-07-05T12:37:55.297Z,6.58
2018-07-05T12:40:34.965Z,9.93
2018-07-05T12:43:14.381Z,9.75
2018-07-05T12:45:53.985Z,7.08
2018-07-05T12:48:33.597Z,6.70
2018-07-05T12:51:13.127Z,6.08
2018-07-05T12:53:52.913Z,7.90
2018-07-05T12:56:32.377Z,9.35
2018-07-05T12:59:12.135Z,11.25
2018-07-05T13:01:51.748Z,7.87
2018-07-05T13:04:31.144Z,7.62
2018-07-05T13:07:10.799Z,12.65
2018-07-05T13:09:50.500Z,7.72
2018-07-05T13:12:30.475Z,6.37
2018-07-05T13:15:10.064Z,10.30
2018-07-05T13:17:49.435Z,23.60
2018-07-05T13:20:29.057Z,10.95
2018-07-05T13:23:08.550Z,6.58
2018-07-05T13:25:48.133Z,6.57
2018-07-05T13:28:27.628Z,14.00
2018-07-05T13:31:07.307Z,7.85
2018-07-05T13:33:46.877Z,4.83
2018-07-05T13:36:26.393Z,6.25
2018-07-05T13:39:06.428Z,7.65
2018-07-05T13:41:46.030Z,5.67
2018-07-05T13:44:25.884Z,3.70
2018-07-05T13:47:05.613Z,3.75
2018-07-05T13:49:46.117Z,6.60
2018-07-05T13:52:25.629Z,5.83
2018-07-05T13:55:05.333Z,3.80
2018-07-05T13:57:44.756Z,5.30
2018-07-05T14:00:24.384Z,5.07
2018-07-05T14:03:03.997Z,5.97
2018-07-05T14:05:43.653Z,5.33
2018-07-05T14:08:23.176Z,3.70
2018-07-05T14:11:02.783Z,5.65
2018-07-05T14:13:42.491Z,4.23
2018-07-05T14:16:21.964Z,5.33
2018-07-05T14:19:01.631Z,5.37
2018-07-05T14:21:41.200Z,4.53
2018-07-05T14:24:20.916Z,4.47
2018-07-05T14:27:00.556Z,4.07
2018-07-05T14:29:40.259Z,6.50
2018-07-05T14:32:19.945Z,5.90
2018-07-05T14:34:59.624Z,4.83
2018-07-05T14:37:39.083Z,7.30
2018-07-05T14:40:18.824Z,7.97
2018-07-05T14:42:58.387Z,10.13
2018-07-05T14:45:37.965Z,8.63
2018-07-05T14:48:17.831Z,11.43
2018-07-05T14:50:57.497Z,11.33
2018-07-05T14:53:37.172Z,8.10
2018-07-05T14:56:17.585Z,15.13
2018-07-05T14:58:57.182Z,19.47
2018-07-05T15:01:36.870Z,21.80
2018-07-05T15:04:16.427Z,17.60
2018-07-05T15:06:56.670Z,13.57
2018-07-05T15:09:36.332Z,15.43
2018-07-05T15:12:15.973Z,14.43
2018-07-05T15:14:55.489Z,14.30
2018-07-05T15:17:35.281Z,14.77
2018-07-05T15:20:14.930Z,15.27
2018-07-05T15:22:54.548Z,17.83
2018-07-05T15:25:34.188Z,17.30
2018-07-05T15:28:13.827Z,17.93
2018-07-05T15:30:53.384Z,16.33
2018-07-05T15:33:33.026Z,15.93
2018-07-05T15:36:12.476Z,15.27
2018-07-05T15:38:52.158Z,19.60
2018-07-05T15:41:31.592Z,15.43
2018-07-05T15:44:11.632Z,16.70
2018-07-05T15:46:51.125Z,15.23
2018-07-05T15:49:24.722Z,14.27
2018-07-05T15:52:04.390Z,14.90
2018-07-05T15:54:44.009Z,15.10
2018-07-05T15:57:24.524Z,15.10
2018-07-05T16:00:04.220Z,15.30
2018-07-05T16:02:43.781Z,13.57
2018-07-05T16:05:23.314Z,12.17
2018-07-05T16:08:02.969Z,13.67
2018-07-05T16:10:42.749Z,13.00
2018-07-05T16:13:22.313Z,12.73
2018-07-05T16:16:01.979Z,12.97
2018-07-05T16:18:41.388Z,12.87
2018-07-05T16:21:21.075Z,12.63
2018-07-05T16:24:00.638Z,11.10
2018-07-05T16:26:40.283Z,11.10
2018-07-05T16:29:19.777Z,10.83
2018-07-05T16:31:59.384Z,10.03
2018-07-05T16:34:38.970Z,9.07
2018-07-05T16:37:18.690Z,6.77
2018-07-05T16:39:58.313Z,6.70
2018-07-05T16:42:37.840Z,7.23
2018-07-05T16:45:17.356Z,7.07
2018-07-05T16:47:57.085Z,5.60
2018-07-05T16:50:36.653Z,7.07
2018-07-05T16:53:10.284Z,3.83
2018-07-05T16:55:50.025Z,5.50
2018-07-05T16:58:29.752Z,4.87
2018-07-05T17:01:09.393Z,5.93
2018-07-05T17:03:48.897Z,3.60
2018-07-05T17:06:29.439Z,2.60
2018-07-05T17:09:09.292Z,2.40
2018-07-05T17:11:49.431Z,3.30
2018-07-05T17:14:29.228Z,3.40
2018-07-05T17:17:09.014Z,3.20
2018-07-05T17:19:48.589Z,3.37
2018-07-05T17:22:28.224Z,2.67
2018-07-05T17:25:07.757Z,3.00
2018-07-05T17:27:47.419Z,5.73
2018-07-05T17:30:27.020Z,2.60
2018-07-05T17:33:07.605Z,3.27
2018-07-05T17:35:47.218Z,5.27
2018-07-05T17:38:26.692Z,3.47
2018-07-05T17:41:06.373Z,2.67
2018-07-05T17:43:46.510Z,2.57
2018-07-05T17:46:26.049Z,3.30
2018-07-05T17:49:05.613Z,2.90
2018-07-05T17:51:45.197Z,2.30
2018-07-05T17:54:24.751Z,4.30
2018-07-05T17:57:04.254Z,2.70
2018-07-05T17:59:43.816Z,2.40
2018-07-05T18:02:23.408Z,3.53
2018-07-05T18:05:03.188Z,2.30
2018-07-05T18:07:43.345Z,2.17
2018-07-05T18:10:22.836Z,1.90
2018-07-05T18:13:02.472Z,3.37
2018-07-05T18:15:42.165Z,2.03
2018-07-05T18:18:21.904Z,6.17
2018-07-05T18:21:01.501Z,2.23
2018-07-05T18:23:41.274Z,2.20
2018-07-05T18:26:22.230Z,2.37
2018-07-05T18:29:01.880Z,2.97
2018-07-05T18:31:41.702Z,1.80
2018-07-05T18:34:21.328Z,2.93
2018-07-05T18:37:01.233Z,4.87
2018-07-05T18:39:40.978Z,2.70
2018-07-05T18:42:20.687Z,3.90
2018-07-05T18:45:00.334Z,2.80
2018-07-05T18:47:40.365Z,2.10
2018-07-05T18:50:19.842Z,2.20
2018-07-05T18:52:59.630Z,3.00
2018-07-05T18:55:39.278Z,1.83
2018-07-05T18:58:19.870Z,2.90
2018-07-05T19:00:59.606Z,2.30
2018-07-05T19:03:39.423Z,3.63
2018-07-05T19:06:19.193Z,1.60
2018-07-05T19:08:58.972Z,2.73
2018-07-05T19:11:32.709Z,1.93
2018-07-05T19:14:12.270Z,1.63
2018-07-05T19:16:51.779Z,3.27
2018-07-05T19:19:31.353Z,2.80
2018-07-05T19:22:10.844Z,1.37
2018-07-05T19:24:50.472Z,1.80
2018-07-05T19:27:24.042Z,1.93
2018-07-05T19:30:03.619Z,1.10
2018-07-05T19:32:43.226Z,2.83
2018-07-05T19:35:23.343Z,1.33
2018-07-05T19:38:02.944Z,2.07
2018-07-05T19:40:42.671Z,1.27
2018-07-05T19:43:27.205Z,4.10
2018-07-05T19:46:06.684Z,1.20
2018-07-05T19:48:46.295Z,1.60
2018-07-05T19:51:26.372Z,1.20
2018-07-05T19:54:07.155Z,1.17
2018-07-05T19:56:46.720Z,1.50
2018-07-05T19:59:27.163Z,1.20
2018-07-05T20:02:06.797Z,1.07
2018-07-05T20:04:48.273Z,1.03
2018-07-05T20:07:27.985Z,0.93
2018-07-05T20:10:08.207Z,1.87
2018-07-05T20:12:47.987Z,1.43
2018-07-05T20:15:27.607Z,1.40
2018-07-05T20:18:07.228Z,1.20
2018-07-05T20:20:46.767Z,1.30
2018-07-05T20:23:26.432Z,1.33
2018-07-05T20:26:05.847Z,1.53
2018-07-05T20:28:45.455Z,1.20
2018-07-05T20:31:25.075Z,3.10
2018-07-05T20:34:04.485Z,1.80
2018-07-05T20:36:43.974Z,2.03
2018-07-05T20:39:23.440Z,2.57
2018-07-05T20:42:03.204Z,1.23
2018-07-05T20:44:42.762Z,1.70
2018-07-05T20:47:22.471Z,2.87
2018-07-05T20:50:02.026Z,1.50
2018-07-05T20:52:41.653Z,2.70
2018-07-05T20:55:21.192Z,3.50
2018-07-05T20:58:00.764Z,1.50
2018-07-05T21:00:40.350Z,2.03
2018-07-05T21:03:20.104Z,1.57
2018-07-05T21:06:01.730Z,2.70
2018-07-05T21:08:41.329Z,3.77
2018-07-05T21:11:20.922Z,1.80
2018-07-05T21:14:00.324Z,1.67
2018-07-05T21:16:41.701Z,1.87
2018-07-05T21:19:22.708Z,2.67
2018-07-05T21:22:02.349Z,1.60
2018-07-05T21:24:41.823Z,1.73
2018-07-05T21:27:21.488Z,2.07
2018-07-05T21:30:01.133Z,1.67
2018-07-05T21:32:40.782Z,2.57
2018-07-05T21:35:22.079Z,4.10
2018-07-05T21:38:02.186Z,1.90
2018-07-05T21:40:41.737Z,2.37
2018-07-05T21:43:21.661Z,3.27
2018-07-05T21:46:01.314Z,1.90
2018-07-05T21:48:40.931Z,1.90
2018-07-05T21:51:20.493Z,1.63
2018-07-05T21:54:00.040Z,1.80
2018-07-05T21:56:39.686Z,2.30
2018-07-05T21:59:19.487Z,2.00
2018-07-05T22:01:59.060Z,1.67
2018-07-05T22:04:38.740Z,3.07
2018-07-05T22:07:18.627Z,2.83
2018-07-05T22:09:58.213Z,2.13
2018-07-05T22:12:37.865Z,2.33
2018-07-05T22:15:17.428Z,2.50
2018-07-05T22:18:02.474Z,3.07
2018-07-05T22:21:49.088Z,2.40
2018-07-05T22:24:34.171Z,2.20
2018-07-05T22:27:19.197Z,2.00
2018-07-05T22:30:04.314Z,2.40
2018-07-05T22:32:44.146Z,2.53
2018-07-05T22:35:23.514Z,2.70
2018-07-05T22:38:03.173Z,2.20
2018-07-05T22:40:42.784Z,1.90
2018-07-05T22:43:22.390Z,2.30
2018-07-05T22:46:01.968Z,2.13
2018-07-05T22:48:41.712Z,3.33
2018-07-05T22:51:21.561Z,2.43
2018-07-05T22:54:01.138Z,2.50
2018-07-05T22:56:40.809Z,2.80
2018-07-05T22:59:20.192Z,2.70
2018-07-05T23:01:59.940Z,2.50
2018-07-05T23:04:39.582Z,2.37
2018-07-05T23:07:19.347Z,3.67
2018-07-05T23:09:58.918Z,4.57
2018-07-05T23:12:38.444Z,2.53
2018-07-05T23:15:18.042Z,2.80
2018-07-05T23:17:57.398Z,3.80
2018-07-05T23:20:38.557Z,2.57
2018-07-05T23:23:18.342Z,2.67
2018-07-05T23:25:57.930Z,4.33
2018-07-05T23:28:37.746Z,3.80
2018-07-05T23:31:17.490Z,3.17
2018-07-05T23:33:57.935Z,2.50
2018-07-05T23:36:37.429Z,2.30
2018-07-05T23:39:17.177Z,2.53
2018-07-05T23:41:56.607Z,2.67
2018-07-05T23:44:36.254Z,2.53
2018-07-05T23:47:15.894Z,2.77
2018-07-05T23:49:55.275Z,2.30
2018-07-05T23:52:34.958Z,3.03
2018-07-05T23:55:14.650Z,2.23
2018-07-05T23:57:54.253Z,2.43
